Time;durP1;ratioP1;P1;durP2;ratioP2;P2;SDS_P1;SDS_P2;PMS_P1;PMS_P2;Temp;Humidity;BMP_temperature;BMP_pressure;BME280_temperature;BME280_humidity;BME280_pressure;Samples;Min_cycle;Max_cycle;Signal;HPM_P1;HPM_P2
2022/06/29 00:00:03;;;;;;;;;;;21.20;68.60;;;20.59;63.59;96527.66;4049693;34;19912;-86
2022/06/29 00:02:35;;;;;;;;;;;21.20;68.50;;;20.59;63.77;96527.66;4071315;34;20089;-86
2022/06/29 00:05:05;;;;;;;;;;;21.20;68.60;;;20.59;63.60;96533.22;4049015;34;20037;-86
2022/06/29 00:07:34;;;;;;;;;;;21.20;68.60;;;20.59;63.62;96522.09;4049509;34;20061;-86
2022/06/29 00:10:03;;;;;;;;;;;21.20;68.60;;;20.58;63.61;96521.25;4049561;34;19905;-86
2022/06/29 00:12:33;;;;;;;;;;;21.20;68.50;;;20.57;63.64;96525.19;4071264;34;19905;-86
2022/06/29 00:15:03;;;;;;;;;;;21.20;68.50;;;20.57;63.45;96529.94;4048819;34;19912;-86
2022/06/29 00:17:32;;;;;;;;;;;21.20;68.50;;;20.57;63.61;96536.31;4049349;34;19905;-86
2022/06/29 00:20:02;;;;;;;;;;;21.20;68.40;;;20.56;63.52;96528.28;4071118;34;19905;-86
2022/06/29 00:22:31;;;;;;;;;;;21.20;68.40;;;20.56;63.57;96537.44;4072110;34;20428;-87
2022/06/29 00:24:59;;;;;;;;;;;21.20;68.40;;;20.57;63.52;96536.31;4071616;34;20371;-86
2022/06/29 00:27:28;;;;;;;;;;;21.20;68.40;;;20.55;63.30;96546.94;4049582;34;19958;-85
2022/06/29 00:29:58;;;;;;;;;;;21.20;68.40;;;20.54;63.42;96543.34;4071136;34;20005;-85
2022/06/29 00:32:27;;;;;;;;;;;21.20;68.40;;;20.55;63.48;96549.72;4049465;34;19905;-85
2022/06/29 00:34:56;;;;;;;;;;;21.20;68.40;;;20.54;63.49;96551.69;4048697;34;20066;-86
2022/06/29 00:37:24;;;;;;;;;;;21.20;68.40;;;20.53;63.45;96536.16;4049348;34;19956;-86
2022/06/29 00:39:53;;;;;;;;;;;21.20;68.30;;;20.54;63.45;96536.94;4049240;34;19905;-86
2022/06/29 00:42:22;;;;;;;;;;;21.10;68.40;;;20.53;63.52;96536.16;4049248;34;20048;-87
2022/06/29 00:44:51;;;;;;;;;;;21.20;68.40;;;20.52;63.45;96534.50;4070280;34;19905;-85
2022/06/29 00:47:22;;;;;;;;;;;21.10;68.40;;;20.52;63.51;96531.72;4048558;34;20011;-86
2022/06/29 00:49:50;;;;;;;;;;;21.10;68.50;;;20.52;63.36;96528.16;4070950;34;20128;-85
2022/06/29 00:52:20;;;;;;;;;;;21.10;68.40;;;20.53;63.40;96529.75;4071941;34;20176;-85
2022/06/29 00:54:54;;;;;;;;;;;21.10;68.40;;;20.50;63.55;96520.09;4048616;34;19905;-85
2022/06/29 00:57:24;;;;;;;;;;;21.10;68.40;;;20.49;63.58;96526.81;4071792;34;20358;-85
2022/06/29 00:59:54;;;;;;;;;;;21.10;68.30;;;20.50;63.51;96531.22;4070843;34;19909;-86
2022/06/29 01:02:25;;;;;;;;;;;21.10;68.30;;;20.50;63.37;96527.66;4070683;34;20343;-85
2022/06/29 01:04:53;;;;;;;;;;;21.10;68.40;;;20.50;63.44;96524.88;4048598;34;20093;-85
2022/06/29 01:07:24;;;;;;;;;;;21.10;68.30;;;20.50;63.48;96525.66;4071534;34;19905;-85
2022/06/29 01:09:53;;;;;;;;;;;21.10;68.30;;;20.50;63.45;96520.09;4049082;34;20096;-85
2022/06/29 01:12:22;;;;;;;;;;;21.10;68.30;;;20.49;63.45;96515.69;4070642;34;19905;-86
2022/06/29 01:14:51;;;;;;;;;;;21.10;68.20;;;20.47;63.16;96519.94;4070034;34;20374;-85
2022/06/29 01:17:21;;;;;;;;;;;21.10;68.30;;;20.48;63.62;96516.03;4070547;34;19912;-86
2022/06/29 01:19:51;;;;;;;;;;;21.10;68.20;;;20.47;63.51;96520.75;4048803;34;19942;-85
2022/06/29 01:22:22;;;;;;;;;;;21.10;68.30;;;20.48;63.34;96518.81;4070599;34;20059;-85
2022/06/29 01:24:51;;;;;;;;;;;21.10;69.10;;;20.47;63.67;96523.53;4070053;34;19905;-85
2022/06/29 01:27:20;;;;;;;;;;;21.10;68.30;;;20.46;63.29;96521.09;4048546;34;19905;-85
2022/06/29 01:29:49;;;;;;;;;;;21.10;68.20;;;20.47;63.35;96522.72;4048821;34;20113;-84
2022/06/29 01:32:17;;;;;;;;;;;21.10;68.30;;;20.46;63.33;96515.53;4048673;34;20169;-85
2022/06/29 01:34:46;;;;;;;;;;;21.10;68.20;;;20.45;63.38;96519.47;4048155;34;20228;-85
2022/06/29 01:37:15;;;;;;;;;;;21.10;68.20;;;20.46;63.24;96527.47;4071228;34;19998;-85
2022/06/29 01:39:45;;;;;;;;;;;21.10;68.10;;;20.45;63.17;96516.66;4070440;34;19905;-85
2022/06/29 01:42:14;;;;;;;;;;;21.10;68.10;;;20.45;63.38;96522.25;4070504;34;20239;-85
2022/06/29 01:44:42;;;;;;;;;;;21.10;68.20;;;20.44;63.28;96524.22;4048223;34;19912;-85
2022/06/29 01:47:11;;;;;;;;;;;21.10;68.20;;;20.45;63.30;96525.00;4048419;34;20147;-85
2022/06/29 01:49:40;;;;;;;;;;;21.10;68.10;;;20.44;63.18;96518.66;4048634;34;19905;-85
2022/06/29 01:52:09;;;;;;;;;;;21.10;68.10;;;20.44;63.31;96517.81;4048618;34;20113;-85
2022/06/29 01:54:37;;;;;;;;;;;21.10;68.10;;;20.43;62.97;96518.97;4047922;34;19933;-85
2022/06/29 01:57:07;;;;;;;;;;;21.10;68.10;;;20.43;63.19;96514.22;4048354;34;20119;-85
2022/06/29 01:59:36;;;;;;;;;;;21.10;68.10;;;20.39;63.23;96502.13;4070120;34;20027;-86
2022/06/29 02:02:05;;;;;;;;;;;21.10;68.10;;;20.41;63.49;96505.41;4048430;34;20026;-85
2022/06/29 02:04:34;;;;;;;;;;;21.10;68.10;;;20.41;63.11;96499.84;4048176;34;19905;-85
2022/06/29 02:07:03;;;;;;;;;;;21.10;68.10;;;20.39;63.21;96496.56;4048270;34;19905;-85
2022/06/29 02:09:32;;;;;;;;;;;21.10;68.10;;;20.39;63.08;96500.16;4048161;34;19912;-85
2022/06/29 02:12:00;;;;;;;;;;;21.00;67.90;;;20.40;62.92;96509.31;4070064;34;19912;-85
2022/06/29 02:14:30;;;;;;;;;;;21.00;67.80;;;20.39;63.38;96513.25;4048028;34;19905;-85
2022/06/29 02:16:59;;;;;;;;;;;21.00;67.90;;;20.39;63.07;96518.81;4069705;34;19905;-85
2022/06/29 02:19:28;;;;;;;;;;;21.00;67.90;;;20.38;63.10;96522.72;4069947;34;19905;-86
2022/06/29 02:21:56;;;;;;;;;;;21.00;67.90;;;20.40;63.42;96531.56;4048259;34;20243;-86
2022/06/29 02:24:25;;;;;;;;;;;21.00;68.00;;;20.38;63.15;96528.28;4069483;34;19905;-86
2022/06/29 02:26:54;;;;;;;;;;;21.00;67.80;;;20.35;63.02;96518.66;4047910;34;19916;-86
2022/06/29 02:29:22;;;;;;;;;;;21.00;68.80;;;20.37;63.10;96523.88;4069303;34;20123;-86
2022/06/29 02:34:44;;;;;;;;;;;21.00;67.90;;;20.37;63.06;96526.66;4047435;34;19905;-86
2022/06/29 02:37:13;;;;;;;;;;;21.00;67.90;;;20.36;63.29;96523.06;4048113;34;20037;-86
2022/06/29 02:39:43;;;;;;;;;;;21.00;67.90;;;20.36;62.94;96513.88;4070626;34;20111;-86
2022/06/29 02:42:12;;;;;;;;;;;21.00;67.90;;;20.36;63.00;96514.72;4048035;34;20172;-86
2022/06/29 02:44:41;;;;;;;;;;;21.00;67.80;;;20.35;62.96;96529.75;4047489;34;20124;-85
2022/06/29 02:47:11;;;;;;;;;;;21.00;67.80;;;20.36;62.81;96530.56;4047945;34;19905;-86
2022/06/29 02:49:40;;;;;;;;;;;21.00;67.80;;;20.34;62.95;96528.13;4048049;34;20346;-86
2022/06/29 02:52:09;;;;;;;;;;;21.00;67.80;;;20.35;62.87;96523.38;4069585;34;20127;-86
2022/06/29 02:54:37;;;;;;;;;;;21.00;67.80;;;20.34;63.44;96522.56;4047186;34;20315;-86
2022/06/29 02:57:06;;;;;;;;;;;21.00;67.80;;;20.35;62.78;96523.38;4069528;34;20003;-86
2022/06/29 02:59:35;;;;;;;;;;;21.00;67.70;;;20.33;62.97;96515.38;4047774;34;20139;-86
2022/06/29 03:02:04;;;;;;;;;;;21.00;67.70;;;20.35;63.10;96515.03;4069524;34;20018;-86
2022/06/29 03:04:35;;;;;;;;;;;21.00;67.60;;;20.34;62.96;96517.00;4068537;34;20041;-86
2022/06/29 03:07:04;;;;;;;;;;;21.00;67.60;;;20.35;62.86;96520.59;4069389;34;19905;-86
2022/06/29 03:09:33;;;;;;;;;;;21.00;67.60;;;20.34;62.76;96525.34;4069256;34;19905;-86
2022/06/29 03:12:01;;;;;;;;;;;21.00;67.50;;;20.34;62.74;96527.28;4069555;34;19979;-86
2022/06/29 03:14:30;;;;;;;;;;;21.00;67.50;;;20.35;63.00;96524.19;4047052;34;19984;-86
2022/06/29 03:16:59;;;;;;;;;;;21.00;67.40;;;20.35;62.57;96531.72;4069359;34;20189;-86
2022/06/29 03:19:27;;;;;;;;;;;21.00;67.30;;;20.36;62.53;96530.56;4069476;35;19904;-86
2022/06/29 03:21:57;;;;;;;;;;;21.00;67.30;;;20.34;62.47;96524.50;4047633;35;20228;-86
2022/06/29 03:24:26;;;;;;;;;;;21.00;67.30;;;20.35;62.47;96515.88;4047034;35;20297;-86
2022/06/29 03:26:55;;;;;;;;;;;21.00;67.30;;;20.34;62.40;96514.22;4069415;35;19939;-86
2022/06/29 03:29:24;;;;;;;;;;;21.00;67.20;;;20.36;62.55;96511.94;4047575;35;19916;-86
2022/06/29 03:31:52;;;;;;;;;;;21.00;67.20;;;20.37;62.12;96509.97;4047658;35;19928;-86
2022/06/29 03:34:21;;;;;;;;;;;21.00;67.20;;;20.39;62.54;96510.47;4068758;35;19912;-86
2022/06/29 03:36:50;;;;;;;;;;;21.00;67.10;;;20.39;62.38;96508.50;4047537;35;19905;-85
2022/06/29 03:39:20;;;;;;;;;;;21.00;67.00;;;20.39;62.32;96502.94;4069256;35;19912;-86
2022/06/29 03:41:48;;;;;;;;;;;21.10;67.20;;;20.41;62.42;96505.41;4047480;35;20161;-87
2022/06/29 03:44:17;;;;;;;;;;;21.10;67.30;;;20.43;62.32;96502.28;4069651;35;19909;-86
2022/06/29 03:46:46;;;;;;;;;;;21.10;67.10;;;20.44;62.20;96504.75;4047500;35;20181;-86
2022/06/29 03:49:15;;;;;;;;;;;21.10;67.80;;;20.44;62.02;96501.97;4047391;35;19912;-86
2022/06/29 03:51:43;;;;;;;;;;;21.10;66.80;;;20.45;62.11;96506.38;4069195;35;20304;-86
2022/06/29 03:54:12;;;;;;;;;;;21.10;66.70;;;20.47;62.01;96503.25;4046990;35;19912;-86
2022/06/29 03:56:42;;;;;;;;;;;21.10;66.70;;;20.47;62.10;96501.28;4047383;35;19950;-86
2022/06/29 03:59:11;;;;;;;;;;;21.10;67.00;;;20.50;62.49;96502.63;4068887;35;19905;-86
2022/06/29 04:01:39;;;;;;;;;;;21.10;67.10;;;20.50;62.28;96497.06;4047323;35;20248;-86
2022/06/29 04:04:08;;;;;;;;;;;21.10;67.20;;;20.51;62.56;96505.06;4069472;35;20108;-86
2022/06/29 04:06:37;;;;;;;;;;;21.20;67.30;;;20.53;62.66;96500.00;4068932;35;20270;-86
2022/06/29 04:09:05;;;;;;;;;;;21.20;67.30;;;20.55;63.16;96496.88;4047251;35;20140;-86
2022/06/29 04:11:54;;;;;;;;;;;21.20;67.80;;;20.56;63.22;96490.16;4047360;35;20220;-86
2022/06/29 04:14:25;;;;;;;;;;;21.20;67.90;;;20.58;63.24;96500.97;4046628;35;19912;-86
2022/06/29 04:16:55;;;;;;;;;;;21.20;68.00;;;20.59;63.55;96494.28;4047426;35;20465;-86
2022/06/29 04:19:24;;;;;;;;;;;21.20;68.00;;;20.60;63.24;96491.16;4047060;35;20428;-86
2022/06/29 04:21:53;;;;;;;;;;;21.20;68.10;;;20.62;63.06;96490.81;4048109;34;19951;-85
2022/06/29 04:24:21;;;;;;;;;;;21.30;68.10;;;20.61;63.27;96486.38;4071432;34;20173;-86
2022/06/29 04:26:50;;;;;;;;;;;21.30;68.10;;;20.64;63.29;96486.56;4071412;34;20361;-86
2022/06/29 04:29:19;;;;;;;;;;;21.30;68.00;;;20.65;63.11;96479.88;4049317;34;19928;-86
2022/06/29 04:31:49;;;;;;;;;;;21.30;67.90;;;20.66;63.06;96473.13;4071937;34;20176;-85
2022/06/29 04:34:18;;;;;;;;;;;21.30;68.10;;;20.68;63.14;96467.25;4048794;34;19909;-86
2022/06/29 04:36:46;;;;;;;;;;;21.30;68.00;;;20.69;63.38;96472.47;4071227;34;19905;-86
2022/06/29 04:39:15;;;;;;;;;;;21.40;68.10;;;20.70;63.41;96462.19;4049528;34;19963;-86
2022/06/29 04:41:44;;;;;;;;;;;21.40;68.20;;;20.69;63.67;96454.97;4049321;34;20111;-86
2022/06/29 04:44:12;;;;;;;;;;;21.40;68.20;;;20.72;63.09;96465.41;4048622;34;19905;-86
2022/06/29 04:46:41;;;;;;;;;;;21.40;68.20;;;20.75;63.39;96464.81;4049558;34;19915;-87
2022/06/29 04:49:11;;;;;;;;;;;21.40;68.00;;;20.75;63.40;96462.03;4049059;34;20142;-86
2022/06/29 04:51:40;;;;;;;;;;;21.40;68.00;;;20.78;63.31;96461.38;4049295;34;19905;-86
2022/06/29 04:54:09;;;;;;;;;;;21.40;68.20;;;20.80;63.61;96461.84;4070358;34;19912;-87
2022/06/29 04:56:37;;;;;;;;;;;21.50;68.20;;;20.83;63.28;96463.97;4070955;34;19912;-86
2022/06/29 04:59:06;;;;;;;;;;;21.50;68.20;;;20.84;63.30;96457.28;4070819;34;20136;-86
2022/06/29 05:01:35;;;;;;;;;;;21.50;68.10;;;20.88;63.09;96462.16;4070924;34;20113;-86
2022/06/29 05:04:03;;;;;;;;;;;21.50;68.00;;;20.89;63.20;96463.78;4070202;34;19905;-86
2022/06/29 05:06:34;;;;;;;;;;;21.50;67.90;;;20.91;63.04;96467.06;4049073;34;20097;-85
2022/06/29 05:09:02;;;;;;;;;;;21.60;67.90;;;20.93;62.87;96468.34;4048906;34;20010;-87
2022/06/29 05:11:31;;;;;;;;;;;21.60;67.50;;;20.96;62.91;96472.47;4049158;34;19912;-86
2022/06/29 05:14:00;;;;;;;;;;;21.60;67.60;;;20.97;62.96;96468.53;4070340;34;20171;-87
2022/06/29 05:16:29;;;;;;;;;;;21.60;67.40;;;21.00;62.88;96470.63;4048872;34;19905;-86
2022/06/29 05:18:58;;;;;;;;;;;21.60;67.50;;;21.00;62.60;96467.84;4048880;34;19905;-85
2022/06/29 05:21:26;;;;;;;;;;;21.70;67.50;;;21.02;62.90;96459.97;4048856;34;19905;-86
2022/06/29 05:23:56;;;;;;;;;;;21.70;67.50;;;21.04;62.91;96466.03;4070200;34;20037;-85
2022/06/29 05:26:25;;;;;;;;;;;21.70;67.40;;;21.04;62.72;96474.38;4048935;34;19905;-85
2022/06/29 05:28:54;;;;;;;;;;;21.70;67.30;;;21.05;62.67;96478.81;4070499;34;20217;-85
2022/06/29 05:31:23;;;;;;;;;;;21.70;67.40;;;21.04;62.70;96477.19;4048723;34;19905;-85
2022/06/29 05:33:52;;;;;;;;;;;21.70;67.40;;;21.05;62.77;96477.97;4047999;34;19912;-85
2022/06/29 05:36:20;;;;;;;;;;;21.70;67.40;;;21.05;62.18;96478.81;4048701;34;19905;-85
2022/06/29 05:38:49;;;;;;;;;;;21.70;67.20;;;21.08;62.72;96474.53;4048814;34;20364;-87
2022/06/29 05:41:19;;;;;;;;;;;21.70;67.30;;;21.06;62.68;96471.25;4071406;34;20136;-86
2022/06/29 05:43:51;;;;;;;;;;;21.70;67.30;;;21.05;62.83;96473.25;4069903;34;19904;-86
2022/06/29 05:46:22;;;;;;;;;;;21.70;67.50;;;21.07;62.92;96476.53;4048695;34;19993;-86
2022/06/29 05:48:50;;;;;;;;;;;21.70;67.40;;;21.06;62.69;96472.09;4048457;34;19961;-86
2022/06/29 05:51:19;;;;;;;;;;;21.70;67.40;;;21.07;62.64;96476.53;4048587;34;19985;-86
2022/06/29 05:53:49;;;;;;;;;;;21.70;67.40;;;21.10;62.75;96475.84;4048062;34;19904;-85
2022/06/29 05:56:19;;;;;;;;;;;21.80;67.40;;;21.12;62.77;96483.88;4048335;34;20122;-87
2022/06/29 05:58:49;;;;;;;;;;;21.80;67.30;;;21.13;62.81;96480.75;4048707;34;20060;-87
2022/06/29 06:01:17;;;;;;;;;;;21.80;67.40;;;21.14;62.81;96485.16;4070086;34;19905;-86
2022/06/29 06:03:46;;;;;;;;;;;21.80;67.40;;;21.15;62.67;96481.22;4048069;34;19905;-86
2022/06/29 06:06:15;;;;;;;;;;;21.80;67.40;;;21.18;62.64;96481.72;4070200;34;20573;-86
2022/06/29 06:08:43;;;;;;;;;;;21.80;67.40;;;21.21;62.74;96483.84;4048397;34;19988;-86
2022/06/29 06:11:12;;;;;;;;;;;21.90;67.50;;;21.22;62.59;96486.28;4070021;34;20064;-85
2022/06/29 06:13:43;;;;;;;;;;;21.90;67.40;;;21.23;62.69;96482.34;4048000;34;20155;-87
2022/06/29 06:16:11;;;;;;;;;;;21.90;67.30;;;21.25;62.53;96480.06;4048346;34;19905;-85
2022/06/29 06:18:40;;;;;;;;;;;21.90;67.30;;;21.28;62.52;96478.56;4070185;34;20092;-86
2022/06/29 06:21:09;;;;;;;;;;;21.90;67.20;;;21.30;62.56;96490.19;4069910;34;19905;-86
2022/06/29 06:23:37;;;;;;;;;;;21.90;67.10;;;21.30;62.47;96491.00;4069698;34;20116;-87
2022/06/29 06:26:06;;;;;;;;;;;22.00;67.10;;;21.31;62.44;96486.25;4048064;34;19912;-87
2022/06/29 06:28:35;;;;;;;;;;;22.00;67.10;;;21.33;62.31;96477.56;4071096;34;19912;-87
2022/06/29 06:31:07;;;;;;;;;;;22.00;67.00;;;21.33;62.40;96478.38;4048151;34;19920;-87
2022/06/29 06:33:35;;;;;;;;;;;22.00;67.10;;;21.34;62.37;96473.63;4069475;34;19913;-87
2022/06/29 06:36:04;;;;;;;;;;;22.00;67.00;;;21.34;62.30;96474.44;4069847;34;20028;-87
2022/06/29 06:38:33;;;;;;;;;;;22.00;67.00;;;21.35;62.78;96476.09;4048191;34;19972;-87
2022/06/29 06:48:24;;;;;;;;;;;22.10;67.20;;;21.45;62.31;96474.88;4043728;35;19924;-88
2022/06/29 06:50:52;;;;;;;;;;;22.10;67.10;;;21.47;62.39;96472.56;4064918;34;19906;-87
2022/06/29 06:53:22;;;;;;;;;;;22.10;67.10;;;21.50;62.48;96476.66;4044101;35;19976;-87
2022/06/29 06:55:51;;;;;;;;;;;22.10;67.00;;;21.53;62.33;96470.41;4022061;35;19912;-87
2022/06/29 06:58:20;;;;;;;;;;;22.20;67.00;;;21.54;62.25;96478.47;4043715;35;19913;-88
2022/06/29 07:00:48;;;;;;;;;;;22.20;66.90;;;21.55;62.56;96466.16;4022013;35;19958;-87
2022/06/29 07:03:17;;;;;;;;;;;22.20;66.80;;;21.58;61.97;96464.66;4021910;35;19905;-86
2022/06/29 07:05:47;;;;;;;;;;;22.20;66.80;;;21.59;62.04;96463.53;4043476;35;20048;-87
2022/06/29 07:08:19;;;;;;;;;;;22.20;66.70;;;21.62;62.08;96460.09;4044499;35;19929;-87
2022/06/29 07:10:47;;;;;;;;;;;22.20;66.60;;;21.63;62.26;96470.06;4043381;35;19912;-87
2022/06/29 07:13:16;;;;;;;;;;;22.30;66.70;;;21.63;61.97;96456.13;4021907;35;20008;-87
2022/06/29 07:15:46;;;;;;;;;;;22.30;66.70;;;21.66;61.95;96454.66;4034359;34;23940;-88
2022/06/29 07:18:15;;;;;;;;;;;22.30;66.60;;;21.67;62.17;96459.09;4047891;35;20132;-87
2022/06/29 07:20:44;;;;;;;;;;;22.30;66.70;;;21.70;61.99;96458.38;4047721;35;19912;-87
2022/06/29 07:23:14;;;;;;;;;;;22.30;66.60;;;21.71;62.23;96449.72;4069461;35;19987;-88
2022/06/29 07:25:43;;;;;;;;;;;22.40;66.60;;;21.74;61.87;96456.56;4047503;35;20110;-87
2022/06/29 07:28:11;;;;;;;;;;;22.30;66.60;;;21.74;61.96;96448.22;4047673;35;19912;-88
2022/06/29 07:30:40;;;;;;;;;;;22.40;67.40;;;21.76;61.80;96446.72;4069383;35;19912;-87
2022/06/29 07:33:09;;;;;;;;;;;22.40;66.40;;;21.76;61.63;96449.50;4069428;35;19982;-88
2022/06/29 07:35:38;;;;;;;;;;;22.40;66.40;;;21.77;61.96;96439.97;4068903;35;20204;-87
2022/06/29 07:38:09;;;;;;;;;;;22.40;66.50;;;21.75;61.93;96439.50;4070289;35;19912;-88
2022/06/29 07:40:39;;;;;;;;;;;22.40;66.50;;;21.79;61.89;96430.47;4047625;35;19905;-89
2022/06/29 07:43:08;;;;;;;;;;;22.40;66.60;;;21.79;61.74;96438.84;4069252;34;19912;-88
2022/06/29 07:45:37;;;;;;;;;;;22.40;66.50;;;21.80;61.84;96437.69;4047067;35;19912;-88
2022/06/29 07:48:07;;;;;;;;;;;22.40;66.50;;;21.81;61.76;96439.31;4069313;35;19911;-88
2022/06/29 07:50:36;;;;;;;;;;;22.40;66.50;;;21.80;61.88;96432.09;4047493;35;20128;-88
2022/06/29 07:53:05;;;;;;;;;;;22.40;66.50;;;21.83;61.91;96434.22;4069499;35;19912;-88
2022/06/29 07:55:33;;;;;;;;;;;22.50;66.70;;;21.83;61.62;96429.44;4070245;34;20124;-88
2022/06/29 08:06:31;;;;;;;;;;;22.50;66.50;;;21.85;61.92;96431.91;4065825;34;19905;-88
2022/06/29 08:09:09;;;;;;;;;;;22.50;66.70;;;21.85;61.88;96427.16;4049738;34;20365;-88
2022/06/29 08:14:33;;;;;;;;;;;22.50;66.70;;;21.83;62.13;96423.06;4044252;34;20000;-88
2022/06/29 08:17:07;;;;;;;;;;;22.40;66.60;;;21.84;62.12;96430.28;4049626;34;19912;-86
2022/06/29 08:19:37;;;;;;;;;;;22.50;66.70;;;21.83;62.09;96423.88;4049709;34;19905;-88
2022/06/29 08:22:06;;;;;;;;;;;22.50;66.80;;;21.82;62.15;96415.88;4049697;34;19925;-88
2022/06/29 08:24:35;;;;;;;;;;;22.50;66.80;;;21.82;62.08;96422.25;4071661;34;20105;-88
2022/06/29 08:27:04;;;;;;;;;;;22.50;66.80;;;21.80;61.88;96419.00;4071229;34;20349;-88
2022/06/29 08:29:33;;;;;;;;;;;22.40;66.60;;;21.80;62.16;96415.38;4071201;34;19912;-88
2022/06/29 08:32:02;;;;;;;;;;;22.40;66.60;;;21.80;62.25;96420.97;4071169;34;20068;-87
2022/06/29 08:34:31;;;;;;;;;;;22.40;66.80;;;21.77;62.13;96414.91;4049055;34;20010;-87
2022/06/29 08:37:01;;;;;;;;;;;22.40;66.80;;;21.76;62.05;96407.69;4071178;34;20106;-87
2022/06/29 08:39:30;;;;;;;;;;;22.40;66.60;;;21.78;62.11;96410.16;4049356;34;19912;-88
2022/06/29 08:42:03;;;;;;;;;;;22.40;66.60;;;21.77;61.96;96409.34;4071130;34;19923;-88
2022/06/29 08:44:33;;;;;;;;;;;22.40;66.60;;;21.77;61.91;96416.88;4048968;34;20333;-88
2022/06/29 08:47:02;;;;;;;;;;;22.40;66.60;;;21.75;62.16;96411.63;4071090;34;20112;-87
2022/06/29 08:49:31;;;;;;;;;;;22.40;67.50;;;21.76;62.26;96406.91;4049292;34;20264;-87
2022/06/29 08:52:02;;;;;;;;;;;22.40;66.60;;;21.74;62.62;96410.03;4049290;34;19914;-87
2022/06/29 08:54:31;;;;;;;;;;;22.40;66.70;;;21.75;61.96;96408.03;4048741;34;20091;-87
2022/06/29 08:57:00;;;;;;;;;;;22.40;66.70;;;21.76;62.01;96402.13;4049214;34;20077;-88
2022/06/29 08:59:29;;;;;;;;;;;22.40;66.70;;;21.75;62.30;96399.69;4071163;34;20492;-88
2022/06/29 09:02:23;;;;;;;;;;;22.40;66.70;;;21.76;62.22;96401.31;4070960;34;19905;-88
2022/06/29 09:05:28;;;;;;;;;;;22.40;66.70;;;21.75;62.28;96406.06;4070550;34;19905;-88
2022/06/29 09:08:17;;;;;;;;;;;22.40;66.70;;;21.77;62.34;96417.69;4048984;34;19919;-87
2022/06/29 09:15:33;;;;;;;;;;;22.40;66.80;;;21.77;62.34;96405.75;4044416;35;20267;-88
2022/06/29 09:18:02;;;;;;;;;;;22.40;66.80;;;21.76;62.22;96404.91;4023135;35;20099;-88
2022/06/29 09:20:41;;;;;;;;;;;22.40;66.80;;;21.77;62.43;96409.34;4023379;35;19912;-87
2022/06/29 09:23:10;;;;;;;;;;;22.40;66.80;;;21.76;62.48;96407.69;4044685;35;19906;-87
2022/06/29 09:25:41;;;;;;;;;;;22.40;66.80;;;21.76;62.42;96407.69;4022864;35;19906;-88
2022/06/29 09:28:20;;;;;;;;;;;22.40;66.70;;;21.75;62.20;96399.69;4044626;35;20140;-87
2022/06/29 09:30:49;;;;;;;;;;;22.40;66.70;;;21.77;62.08;96408.53;4023081;35;20258;-88
2022/06/29 09:33:17;;;;;;;;;;;22.40;66.70;;;21.74;62.06;96393.31;4023138;35;19912;-89
2022/06/29 09:35:46;;;;;;;;;;;22.40;66.60;;;21.77;62.09;96411.31;4023148;35;19921;-88
2022/06/29 09:38:20;;;;;;;;;;;22.40;66.70;;;21.76;62.11;96413.28;4044645;35;20152;-88
2022/06/29 09:41:01;;;;;;;;;;;22.40;66.60;;;21.76;62.37;96410.47;4044802;35;20027;-87
2022/06/29 09:43:30;;;;;;;;;;;22.40;66.60;;;21.75;62.11;96406.06;4022614;35;19912;-88
2022/06/29 09:46:00;;;;;;;;;;;22.40;66.70;;;21.74;62.29;96404.47;4044523;35;20158;-88
2022/06/29 09:48:29;;;;;;;;;;;22.40;66.60;;;21.75;62.16;96403.28;4022996;35;19906;-88
2022/06/29 09:50:58;;;;;;;;;;;22.40;66.60;;;21.76;62.01;96401.31;4023062;35;20110;-87
2022/06/29 09:53:36;;;;;;;;;;;22.40;66.50;;;21.74;61.97;96398.06;4043902;35;19912;-88
2022/06/29 09:56:08;;;;;;;;;;;22.40;66.60;;;21.75;62.29;96400.50;4023003;35;19913;-87
2022/06/29 09:58:43;;;;;;;;;;;22.40;66.60;;;21.74;62.15;96386.91;4044221;35;19913;-88
2022/06/29 10:03:57;;;;;;;;;;;22.40;66.50;;;21.75;62.06;96394.91;4060915;34;19910;-88
2022/06/29 10:06:26;;;;;;;;;;;22.40;66.50;;;21.74;62.19;96398.88;4048702;34;20009;-88
2022/06/29 10:08:55;;;;;;;;;;;22.40;66.40;;;21.74;62.10;96396.09;4070243;34;20235;-88
2022/06/29 10:14:36;;;;;;;;;;;22.40;66.50;;;21.72;62.05;96394.78;4070860;34;19905;-88
2022/06/29 10:17:12;;;;;;;;;;;22.40;66.50;;;21.71;62.35;96393.97;4048426;34;19909;-88
2022/06/29 10:19:48;;;;;;;;;;;22.30;66.70;;;21.70;62.14;96386.78;4047688;34;20081;-88
2022/06/29 10:22:17;;;;;;;;;;;22.40;66.70;;;21.71;62.16;96387.56;4048351;34;19912;-87
2022/06/29 10:25:03;;;;;;;;;;;22.40;66.70;;;21.70;61.98;96386.78;4047975;34;19958;-86
2022/06/29 10:27:35;;;;;;;;;;;22.40;66.80;;;21.70;62.27;96383.16;4070172;34;20238;-88
2022/06/29 10:30:21;;;;;;;;;;;22.40;66.60;;;21.69;62.17;96375.94;4048303;34;20096;-88
2022/06/29 10:32:50;;;;;;;;;;;22.40;66.80;;;21.68;62.23;96377.94;4048257;34;20136;-88
2022/06/29 10:35:19;;;;;;;;;;;22.40;66.80;;;21.70;62.44;96381.22;4069766;34;19945;-88
2022/06/29 10:37:50;;;;;;;;;;;22.40;66.80;;;21.69;61.98;96375.94;4048353;34;20250;-88
2022/06/29 10:40:24;;;;;;;;;;;22.40;66.80;;;21.68;62.09;96371.56;4069993;34;19912;-88
2022/06/29 10:43:08;;;;;;;;;;;22.40;67.60;;;21.68;62.20;96366.78;4092232;34;20109;-88
2022/06/29 10:45:46;;;;;;;;;;;22.30;66.80;;;21.67;62.19;96369.94;4022239;35;20181;-88
2022/06/29 10:48:24;;;;;;;;;;;22.30;66.80;;;21.68;62.20;96363.19;4022424;35;20388;-89
2022/06/29 10:50:53;;;;;;;;;;;22.30;66.40;;;21.68;61.92;96377.94;4044773;35;19963;-87
2022/06/29 10:53:22;;;;;;;;;;;22.30;66.60;;;21.67;61.97;96370.72;4043379;35;20144;-88
2022/06/29 10:55:54;;;;;;;;;;;22.30;66.40;;;21.67;62.54;96367.94;4022621;35;20137;-88
2022/06/29 10:58:24;;;;;;;;;;;22.30;66.70;;;21.67;62.07;96376.31;4022415;35;20093;-88
2022/06/29 11:05:15;;;;;;;;;;;22.30;66.60;;;21.66;61.94;96357.94;4044329;35;20214;-87
2022/06/29 11:13:21;;;;;;;;;;;22.30;66.60;;;21.68;61.79;96354.84;4043146;35;19905;-88
2022/06/29 11:15:53;;;;;;;;;;;22.30;66.40;;;21.67;62.13;96345.66;4022338;35;19913;-88
2022/06/29 11:18:23;;;;;;;;;;;22.30;66.50;;;21.67;61.77;96345.66;4022281;35;19905;-88
2022/06/29 11:29:00;;;;;;;;;;;22.30;66.40;;;21.67;62.04;96340.09;3979842;35;19905;-88
2022/06/29 11:31:30;;;;;;;;;;;22.30;66.50;;;21.66;62.08;96334.88;4023579;35;19905;-87
2022/06/29 11:34:01;;;;;;;;;;;22.30;66.40;;;21.67;62.03;96331.72;4023682;35;19905;-87
2022/06/29 11:36:31;;;;;;;;;;;22.40;66.50;;;21.69;61.85;96334.16;4024420;35;20369;-87
2022/06/29 11:39:06;;;;;;;;;;;22.30;66.40;;;21.68;61.87;96330.56;4045769;35;19912;-87
2022/06/29 11:44:27;;;;;;;;;;;22.30;66.50;;;21.67;62.05;96328.13;4022926;35;20248;-87
2022/06/29 11:46:57;;;;;;;;;;;22.30;66.60;;;21.68;62.17;96327.78;4024487;35;19905;-88
2022/06/29 11:49:39;;;;;;;;;;;22.40;66.60;;;21.69;62.24;96317.44;4045819;35;20386;-87
2022/06/29 11:52:12;;;;;;;;;;;22.30;66.60;;;21.69;61.95;96318.28;4024426;35;19905;-88
2022/06/29 11:54:43;;;;;;;;;;;22.30;66.60;;;21.69;62.02;96317.44;4029046;34;20140;-87
2022/06/29 11:57:15;;;;;;;;;;;22.40;66.60;;;21.67;62.05;96309.44;4050122;34;19904;-89
2022/06/29 11:59:45;;;;;;;;;;;22.40;66.70;;;21.70;61.92;96319.91;4072494;34;19904;-87
2022/06/29 12:02:17;;;;;;;;;;;22.40;66.50;;;21.71;61.98;96321.53;4071959;34;20087;-87
2022/06/29 12:04:47;;;;;;;;;;;22.40;66.60;;;21.71;61.91;96307.59;4049470;34;20131;-87
2022/06/29 12:07:18;;;;;;;;;;;22.40;66.50;;;21.72;61.89;96312.03;4049979;34;20071;-87
2022/06/29 12:09:48;;;;;;;;;;;22.40;66.50;;;21.69;61.54;96301.56;4049958;34;20579;-87
2022/06/29 12:12:17;;;;;;;;;;;22.40;66.30;;;21.72;62.09;96294.47;4071636;34;20131;-88
2022/06/29 12:14:46;;;;;;;;;;;22.40;66.50;;;21.73;61.78;96298.91;4049227;34;19904;-89
2022/06/29 12:17:16;;;;;;;;;;;22.40;66.40;;;21.74;62.05;96289.38;4071334;34;20076;-87
2022/06/29 12:19:45;;;;;;;;;;;22.40;66.50;;;21.72;62.25;96295.31;4049792;34;19945;-87
2022/06/29 12:22:13;;;;;;;;;;;22.40;66.40;;;21.74;61.88;96292.16;4071483;34;19999;-87